Time;durP1;ratioP1;P1;durP2;ratioP2;P2;SDS_P1;SDS_P2;PMS_P1;PMS_P2;Temp;Humidity;BMP_temperature;BMP_pressure;BME280_temperature;BME280_humidity;BME280_pressure;Samples;Min_cycle;Max_cycle;Signal;HPM_P1;HPM_P2
2022/05/24 00:00:43;;;;;;;8.80;6.10;;;18.50;61.00;;;;;;4942089;28;20411;-44
2022/05/24 00:03:10;;;;;;;9.60;6.47;;;18.50;61.10;;;;;;4940099;28;20445;-45
2022/05/24 00:05:38;;;;;;;8.55;6.32;;;18.50;61.30;;;;;;4942993;28;20056;-47
2022/05/24 00:08:07;;;;;;;7.32;6.07;;;18.50;61.40;;;;;;4939823;28;20051;-46
2022/05/24 00:10:35;;;;;;;10.73;7.13;;;18.50;61.40;;;;;;4941158;28;20062;-46
2022/05/24 00:13:05;;;;;;;9.88;7.00;;;18.50;61.40;;;;;;4945577;28;20634;-50
2022/05/24 00:15:33;;;;;;;9.07;6.80;;;18.50;61.50;;;;;;4943111;28;20503;-46
2022/05/24 00:18:05;;;;;;;8.13;6.28;;;18.60;61.60;;;;;;4942495;28;20993;-46
2022/05/24 00:20:34;;;;;;;8.18;5.75;;;18.60;61.60;;;;;;4944751;28;20066;-45
2022/05/24 00:23:03;;;;;;;7.32;5.32;;;18.60;61.60;;;;;;4946097;28;20055;-44
2022/05/24 00:25:33;;;;;;;8.73;5.32;;;18.60;61.60;;;;;;4944940;28;20516;-45
2022/05/24 00:28:00;;;;;;;7.68;5.53;;;18.60;61.70;;;;;;4942786;28;20059;-45
2022/05/24 00:30:29;;;;;;;5.55;4.55;;;18.60;61.60;;;;;;4944805;28;20066;-50
2022/05/24 00:32:57;;;;;;;5.47;4.50;;;18.70;61.70;;;;;;4943053;28;20063;-44
2022/05/24 00:35:25;;;;;;;8.20;4.68;;;18.70;61.60;;;;;;4945201;28;20506;-44
2022/05/24 00:37:53;;;;;;;5.93;4.60;;;18.60;61.60;;;;;;4942095;28;20066;-44
2022/05/24 00:40:33;;;;;;;7.00;5.35;;;18.70;61.60;;;;;;4943924;28;20063;-45
2022/05/24 00:43:04;;;;;;;6.63;4.55;;;18.70;62.00;;;;;;4944122;28;20059;-46
2022/05/24 00:45:36;;;;;;;6.22;4.72;;;18.70;61.60;;;;;;4943052;28;20054;-48
2022/05/24 00:48:08;;;;;;;5.57;4.30;;;18.70;61.50;;;;;;4942721;28;20051;-45
2022/05/24 00:50:39;;;;;;;8.18;4.45;;;18.70;61.30;;;;;;4943830;28;20047;-46
2022/05/24 00:53:10;;;;;;;5.63;3.90;;;18.70;61.20;;;;;;4945469;28;20055;-46
2022/05/24 00:55:53;;;;;;;4.45;3.88;;;18.70;61.20;;;;;;4944036;28;20062;-46
2022/05/24 00:58:32;;;;;;;6.85;4.18;;;18.70;61.20;;;;;;4942979;28;20055;-47
2022/05/24 01:01:11;;;;;;;4.65;3.58;;;18.70;61.00;;;;;;4944822;28;20051;-46
2022/05/24 01:03:39;;;;;;;5.10;3.63;;;18.70;60.90;;;;;;4944379;28;20051;-48
2022/05/24 01:06:07;;;;;;;5.75;4.63;;;18.80;60.90;;;;;;4945510;28;20047;-46
2022/05/24 01:08:34;;;;;;;5.45;4.07;;;18.70;60.80;;;;;;4942847;28;20403;-44
2022/05/24 01:11:04;;;;;;;5.13;4.28;;;18.70;60.90;;;;;;4944381;28;20051;-45
2022/05/24 01:13:32;;;;;;;6.07;3.78;;;18.70;61.00;;;;;;4945291;28;20063;-45
2022/05/24 01:16:01;;;;;;;7.43;4.20;;;18.70;61.00;;;;;;4943172;28;20051;-46
2022/05/24 01:18:29;;;;;;;5.57;4.63;;;18.80;60.90;;;;;;4938268;28;20051;-46
2022/05/24 01:21:03;;;;;;;7.03;4.97;;;18.80;60.70;;;;;;4945735;28;20051;-46
2022/05/24 01:23:52;;;;;;;6.15;4.85;;;18.70;60.60;;;;;;4943294;28;20419;-47
2022/05/24 01:26:27;;;;;;;8.25;5.57;;;18.70;60.50;;;;;;4945041;28;20047;-47
2022/05/24 01:28:58;;;;;;;5.25;4.30;;;18.70;60.30;;;;;;4941047;28;20059;-48
2022/05/24 01:36:09;;;;;;;6.00;4.18;;;18.70;60.20;;;;;;4943746;28;20059;-46
2022/05/24 01:37:02;;;;;;;4.80;3.47;;;18.70;59.80;;;;;;4932035;28;20051;-46
2022/05/24 01:39:30;;;;;;;5.72;3.85;;;18.60;59.80;;;;;;4938090;28;20058;-46
2022/05/24 01:41:58;;;;;;;8.10;3.90;;;18.60;59.80;;;;;;4944254;28;20055;-45
2022/05/24 01:44:32;;;;;;;5.97;3.25;;;18.60;59.80;;;;;;4943718;28;20127;-46
2022/05/24 01:47:00;;;;;;;3.90;2.90;;;18.60;60.00;;;;;;4941282;28;20059;-51
2022/05/24 01:49:31;;;;;;;3.38;3.08;;;18.60;60.10;;;;;;4943853;28;20059;-45
2022/05/24 01:52:04;;;;;;;4.82;3.40;;;18.60;60.10;;;;;;4943634;28;20078;-45
2022/05/24 01:54:36;;;;;;;4.40;3.10;;;18.50;60.30;;;;;;4941437;28;20518;-45
2022/05/24 01:57:11;;;;;;;3.67;3.10;;;18.50;60.20;;;;;;4942940;28;20059;-46
2022/05/24 01:59:42;;;;;;;4.47;3.10;;;18.50;60.30;;;;;;4943665;28;20059;-44
2022/05/24 02:02:10;;;;;;;5.55;3.70;;;18.60;60.30;;;;;;4942208;28;20055;-45
2022/05/24 02:04:38;;;;;;;13.38;3.50;;;18.50;60.20;;;;;;4944778;28;20059;-46
2022/05/24 02:07:09;;;;;;;5.53;3.10;;;18.50;60.40;;;;;;4939669;28;20051;-44
2022/05/24 02:09:40;;;;;;;5.00;2.75;;;18.50;60.40;;;;;;4944685;28;20415;-46
2022/05/24 02:12:12;;;;;;;6.68;3.17;;;18.50;60.40;;;;;;4942868;28;20051;-45
2022/05/24 02:14:44;;;;;;;2.70;2.50;;;18.50;60.40;;;;;;4943560;28;20066;-45
2022/05/24 02:17:15;;;;;;;2.53;2.13;;;18.50;60.50;;;;;;4939157;28;20934;-45
2022/05/24 02:19:48;;;;;;;3.17;2.10;;;18.50;60.50;;;;;;4943632;28;20062;-46
2022/05/24 02:22:19;;;;;;;3.47;2.42;;;18.50;60.50;;;;;;4942817;28;20070;-46
2022/05/24 02:24:54;;;;;;;2.80;2.22;;;18.50;60.50;;;;;;4942830;28;20058;-46
2022/05/24 02:27:21;;;;;;;4.85;2.35;;;18.60;60.40;;;;;;4942572;28;20058;-46
2022/05/24 02:29:50;;;;;;;4.07;2.28;;;18.50;60.10;;;;;;4943732;28;20078;-46
2022/05/24 02:32:18;;;;;;;3.63;2.40;;;18.50;60.10;;;;;;4940582;28;20066;-45
2022/05/24 02:34:45;;;;;;;2.50;1.80;;;18.50;60.30;;;;;;4941690;28;20503;-46
2022/05/24 02:37:13;;;;;;;3.13;2.25;;;18.50;60.20;;;;;;4940842;28;20079;-47
2022/05/24 02:42:21;;;;;;;3.45;2.20;;;18.50;60.30;;;;;;4940591;28;20062;-50
2022/05/24 02:44:50;;;;;;;3.30;2.13;;;18.50;60.20;;;;;;4942687;28;20047;-45
2022/05/24 02:47:18;;;;;;;2.95;2.33;;;18.50;60.10;;;;;;4938644;28;20058;-45
2022/05/24 02:49:46;;;;;;;2.75;2.17;;;18.60;60.00;;;;;;4940709;28;20518;-47
2022/05/24 02:52:13;;;;;;;2.25;1.80;;;18.50;60.00;;;;;;4942520;28;20059;-47
2022/05/24 02:54:41;;;;;;;2.42;1.70;;;18.50;60.00;;;;;;4942603;28;20063;-47
2022/05/24 02:57:09;;;;;;;2.67;2.10;;;18.50;60.00;;;;;;4941536;28;20514;-45
2022/05/24 02:59:37;;;;;;;4.70;2.17;;;18.50;60.00;;;;;;4941249;28;20337;-46
2022/05/24 03:02:07;;;;;;;4.80;2.40;;;18.50;59.80;;;;;;4939608;28;20066;-45
2022/05/24 03:04:35;;;;;;;2.15;1.92;;;18.50;59.80;;;;;;4942899;28;20063;-45
2022/05/24 03:09:48;;;;;;;2.80;1.70;;;18.50;59.70;;;;;;4948107;28;20054;-45
2022/05/24 03:15:02;;;;;;;3.38;1.80;;;18.50;59.70;;;;;;4945806;28;20066;-47
2022/05/24 03:17:32;;;;;;;2.33;1.60;;;18.50;59.80;;;;;;4939261;28;20070;-46
2022/05/24 03:19:59;;;;;;;2.95;1.58;;;18.50;59.90;;;;;;4942442;28;20126;-46
2022/05/24 03:22:27;;;;;;;2.45;2.05;;;18.50;59.90;;;;;;4941786;28;20054;-45
2022/05/24 03:24:54;;;;;;;5.93;2.17;;;18.50;59.80;;;;;;4942183;28;20058;-46
2022/05/24 03:27:22;;;;;;;3.00;2.13;;;18.50;60.50;;;;;;4938596;28;20055;-48
2022/05/24 03:29:49;;;;;;;4.20;2.63;;;18.50;60.00;;;;;;4941424;28;20051;-44
2022/05/24 03:32:19;;;;;;;4.50;2.35;;;18.40;59.90;;;;;;4938466;28;20059;-45
2022/05/24 03:34:48;;;;;;;4.28;2.08;;;18.40;60.00;;;;;;4940277;28;20110;-45
2022/05/24 03:37:15;;;;;;;4.55;2.30;;;18.40;60.00;;;;;;4935373;28;20055;-45
2022/05/24 03:39:43;;;;;;;3.05;2.40;;;18.40;60.10;;;;;;4943051;28;20514;-45
2022/05/24 03:42:10;;;;;;;3.45;2.70;;;18.40;60.10;;;;;;4938206;28;20062;-51
2022/05/24 03:44:38;;;;;;;5.25;2.92;;;18.40;60.10;;;;;;4942167;28;20059;-46
2022/05/24 03:47:06;;;;;;;5.93;3.33;;;18.40;60.10;;;;;;4941790;28;20067;-45
2022/05/24 03:49:33;;;;;;;7.13;3.25;;;18.30;60.20;;;;;;4945946;28;20055;-48
2022/05/24 03:52:02;;;;;;;9.65;2.80;;;18.30;60.40;;;;;;4944130;28;20051;-52
2022/05/24 03:54:30;;;;;;;8.18;2.55;;;18.10;60.90;;;;;;4942667;28;20055;-49
2022/05/24 03:59:43;;;;;;;3.35;1.88;;;17.80;61.70;;;;;;4949115;28;20054;-48
2022/05/24 04:02:11;;;;;;;5.60;1.80;;;17.60;61.90;;;;;;4944116;28;20059;-48
2022/05/24 04:04:38;;;;;;;5.70;1.63;;;17.40;62.50;;;;;;4943326;28;20427;-47
2022/05/24 04:07:07;;;;;;;4.28;1.70;;;17.30;63.10;;;;;;4945479;28;20114;-52
2022/05/24 04:09:36;;;;;;;5.70;2.40;;;17.20;63.60;;;;;;4946438;28;20415;-47
2022/05/24 04:12:05;;;;;;;6.57;2.60;;;17.10;63.90;;;;;;4942107;28;20889;-46
2022/05/24 04:14:33;;;;;;;4.72;2.00;;;17.00;64.50;;;;;;4946429;28;20598;-49
2022/05/24 04:17:01;;;;;;;2.90;2.25;;;17.00;64.80;;;;;;4937711;28;20051;-46
2022/05/24 04:19:28;;;;;;;5.28;2.17;;;17.00;65.20;;;;;;4942040;28;20062;-46
2022/05/24 04:21:56;;;;;;;5.10;2.63;;;16.90;65.20;;;;;;4944250;28;20055;-46
2022/05/24 04:24:25;;;;;;;4.72;3.13;;;16.90;65.40;;;;;;4944272;28;20062;-45
2022/05/24 04:26:52;;;;;;;4.88;2.85;;;16.90;65.80;;;;;;4939971;28;20074;-48
2022/05/24 04:29:20;;;;;;;8.38;3.38;;;16.90;66.00;;;;;;4944279;28;20063;-45
2022/05/24 04:31:48;;;;;;;15.18;3.58;;;16.80;66.10;;;;;;4942783;28;20059;-46
2022/05/24 04:34:16;;;;;;;3.72;2.63;;;16.70;66.30;;;;;;4942031;28;20062;-46
2022/05/24 04:36:43;;;;;;;5.68;3.17;;;16.70;66.50;;;;;;4941360;28;20058;-44
2022/05/24 04:39:11;;;;;;;11.77;3.38;;;16.70;66.60;;;;;;4942903;28;20062;-49
2022/05/24 04:44:25;;;;;;;8.15;3.10;;;16.60;66.10;;;;;;4945249;28;20471;-45
2022/05/24 04:47:11;;;;;;;7.50;2.50;;;16.60;65.50;;;;;;4942912;28;20066;-51
2022/05/24 04:49:40;;;;;;;11.48;2.50;;;16.50;64.10;;;;;;4942862;28;20055;-49
2022/05/24 04:52:09;;;;;;;6.80;2.60;;;16.30;63.80;;;;;;4941681;28;20499;-46
2022/05/24 04:54:39;;;;;;;11.38;2.40;;;16.20;63.80;;;;;;4940298;28;20526;-45
2022/05/24 04:57:08;;;;;;;9.45;2.45;;;16.10;64.00;;;;;;4943683;28;20484;-45
2022/05/24 04:59:36;;;;;;;6.90;2.10;;;16.00;64.20;;;;;;4944776;28;20522;-46
2022/05/24 05:02:04;;;;;;;8.50;2.38;;;15.90;64.50;;;;;;4942195;28;20054;-46
2022/05/24 05:04:32;;;;;;;5.82;2.63;;;15.80;64.70;;;;;;4945330;28;20055;-45
2022/05/24 05:07:00;;;;;;;7.32;2.55;;;15.70;65.00;;;;;;4944344;28;20059;-48
2022/05/24 05:09:34;;;;;;;8.88;3.42;;;15.60;65.40;;;;;;4940587;28;20512;-45
2022/05/24 05:12:02;;;;;;;;;;;15.60;65.80;;;;;;4944229;28;20055;-45
2022/05/24 05:14:31;;;;;;;7.78;2.63;;;15.70;66.00;;;;;;4941875;28;19937;-45
2022/05/24 05:16:58;;;;;;;10.23;2.97;;;15.60;66.50;;;;;;4940793;28;20062;-47
2022/05/24 05:19:26;;;;;;;12.30;3.40;;;15.60;65.80;;;;;;4944647;28;20491;-45
2022/05/24 05:21:53;;;;;;;9.85;4.13;;;15.50;66.00;;;;;;4943880;28;20066;-44
2022/05/24 05:24:21;;;;;;;6.07;3.08;;;15.50;66.40;;;;;;4941893;28;20066;-44
2022/05/24 05:26:49;;;;;;;7.10;3.10;;;15.50;66.60;;;;;;4942971;28;20495;-45
2022/05/24 05:31:16;;;;;;;8.18;2.63;;;15.50;66.90;;;;;;4940454;28;20062;-44
2022/05/24 05:32:05;;;;;;;9.23;3.35;;;15.50;67.10;;;;;;4938792;28;20443;-46
2022/05/24 05:34:33;;;;;;;7.75;3.22;;;15.40;67.20;;;;;;4941918;28;20062;-47
2022/05/24 05:37:04;;;;;;;9.90;3.20;;;15.50;67.20;;;;;;4940122;28;20769;-44
2022/05/24 05:39:32;;;;;;;4.85;2.70;;;15.50;67.40;;;;;;4942931;28;20055;-46
2022/05/24 05:41:59;;;;;;;7.63;2.90;;;15.50;67.50;;;;;;4944447;28;20062;-45
2022/05/24 05:44:27;;;;;;;4.43;2.58;;;15.50;67.50;;;;;;4936556;28;20064;-45
2022/05/24 05:46:55;;;;;;;4.47;2.50;;;15.60;67.70;;;;;;4939971;28;20081;-47
2022/05/24 05:49:24;;;;;;;3.90;2.10;;;15.60;67.80;;;;;;4939138;28;20147;-46
2022/05/24 05:51:51;;;;;;;7.72;2.85;;;15.60;68.00;;;;;;4939590;28;20407;-45
2022/05/24 05:54:21;;;;;;;5.35;2.75;;;15.70;67.80;;;;;;4941777;28;20059;-44
2022/05/24 05:56:49;;;;;;;3.17;2.17;;;15.80;67.70;;;;;;4942596;28;20051;-47
2022/05/24 05:59:16;;;;;;;6.65;2.28;;;15.80;67.60;;;;;;4938428;28;20578;-46
2022/05/24 06:01:44;;;;;;;7.63;2.50;;;15.90;67.70;;;;;;4935617;28;20400;-45
2022/05/24 06:04:12;;;;;;;7.32;2.90;;;15.90;67.70;;;;;;4937950;28;20066;-49
2022/05/24 06:06:44;;;;;;;6.85;3.47;;;16.00;67.70;;;;;;4940395;28;20047;-47
2022/05/24 06:09:12;;;;;;;6.10;2.88;;;16.00;67.50;;;;;;4940033;28;20066;-45
2022/05/24 06:11:41;;;;;;;176.27;6.20;;;16.10;67.10;;;;;;4944061;28;20051;-46
2022/05/24 06:14:09;;;;;;;34.92;3.67;;;16.10;66.90;;;;;;4941719;28;20051;-45
2022/05/24 06:16:37;;;;;;;6.55;2.78;;;16.10;66.70;;;;;;4938964;28;20055;-48
2022/05/24 06:19:05;;;;;;;9.73;3.03;;;16.10;66.60;;;;;;4938838;28;20047;-45
2022/05/24 06:21:34;;;;;;;5.57;2.88;;;16.10;66.70;;;;;;4942316;28;20058;-46
2022/05/24 06:24:03;;;;;;;7.05;2.80;;;16.10;66.70;;;;;;4940892;28;20411;-47
2022/05/24 06:26:33;;;;;;;10.18;3.03;;;16.10;66.60;;;;;;4939885;28;20066;-50
2022/05/24 06:29:04;;;;;;;6.03;3.25;;;16.10;66.40;;;;;;4938926;28;20054;-49
2022/05/24 06:31:35;;;;;;;9.02;3.38;;;16.00;66.20;;;;;;4938763;28;20067;-48
2022/05/24 06:34:05;;;;;;;7.90;2.88;;;16.00;66.50;;;;;;4939790;28;20051;-45
2022/05/24 06:36:33;;;;;;;6.45;2.92;;;16.00;66.70;;;;;;4940158;28;20385;-47
2022/05/24 06:39:00;;;;;;;9.45;3.40;;;16.00;67.00;;;;;;4939474;28;20051;-45
2022/05/24 06:41:31;;;;;;;4.32;2.70;;;15.90;67.00;;;;;;4941458;28;20062;-46
2022/05/24 06:43:59;;;;;;;8.00;3.10;;;15.90;67.10;;;;;;4942059;28;20537;-44
2022/05/24 06:46:31;;;;;;;6.45;3.15;;;15.90;67.30;;;;;;4935148;28;20059;-46
2022/05/24 06:48:58;;;;;;;8.30;2.40;;;16.00;67.40;;;;;;4936614;28;20058;-45
2022/05/24 06:51:26;;;;;;;5.60;1.92;;;15.90;67.10;;;;;;4941845;28;20070;-46
2022/05/24 06:53:57;;;;;;;7.40;2.17;;;16.00;66.90;;;;;;4934919;28;20051;-44
2022/05/24 06:56:26;;;;;;;3.83;1.85;;;16.00;66.40;;;;;;4939857;28;20059;-48
2022/05/24 07:02:25;;;;;;;5.68;1.80;;;16.00;66.30;;;;;;4940477;28;20055;-44
2022/05/24 07:04:28;;;;;;;4.68;1.20;;;16.00;66.00;;;;;;4946960;28;20066;-45
2022/05/24 07:06:56;;;;;;;3.88;1.38;;;16.00;65.00;;;;;;4939836;28;20059;-48
2022/05/24 07:09:31;;;;;;;4.22;1.23;;;16.00;64.80;;;;;;4936122;28;20059;-44
2022/05/24 07:11:58;;;;;;;3.45;1.17;;;16.10;64.60;;;;;;4935183;28;20055;-45
2022/05/24 07:14:28;;;;;;;3.75;1.15;;;16.10;64.60;;;;;;4940015;28;20055;-45
2022/05/24 07:16:57;;;;;;;5.57;1.20;;;16.10;64.10;;;;;;4936570;28;20562;-46
2022/05/24 07:19:25;;;;;;;3.60;1.00;;;16.10;63.80;;;;;;4940003;28;20051;-47
2022/05/24 07:21:53;;;;;;;1.75;1.00;;;16.10;63.40;;;;;;4940151;28;20043;-48
2022/05/24 07:24:21;;;;;;;5.68;1.52;;;16.10;63.10;;;;;;4936164;28;20459;-45
2022/05/24 07:26:48;;;;;;;5.28;1.02;;;16.10;63.10;;;;;;4935700;28;20058;-44
2022/05/24 07:29:16;;;;;;;2.88;1.10;;;16.10;62.90;;;;;;4938424;28;20055;-46
2022/05/24 07:31:48;;;;;;;4.43;1.15;;;16.10;63.00;;;;;;4938896;28;20055;-48
2022/05/24 07:34:16;;;;;;;3.28;0.90;;;16.10;62.60;;;;;;4940662;28;20066;-49
2022/05/24 07:36:46;;;;;;;1.67;0.75;;;16.10;63.50;;;;;;4942010;28;20070;-45
2022/05/24 07:39:14;;;;;;;2.88;0.90;;;16.20;62.20;;;;;;4940359;28;20055;-46
2022/05/24 07:47:33;;;;;;;2.83;0.80;;;16.20;62.90;;;;;;4900569;28;20047;-45
2022/05/24 07:50:01;;;;;;;1.52;0.70;;;16.30;63.00;;;;;;4941552;28;20522;-45
2022/05/24 07:52:29;;;;;;;1.92;0.80;;;16.40;63.40;;;;;;4938652;28;20066;-46
2022/05/24 07:54:56;;;;;;;2.53;1.00;;;16.50;64.10;;;;;;4939636;28;20051;-45
2022/05/24 07:57:24;;;;;;;4.55;0.68;;;16.60;64.30;;;;;;4940818;28;20055;-45
2022/05/24 07:59:51;;;;;;;3.53;0.90;;;16.70;64.00;;;;;;4940201;28;20055;-48
2022/05/24 08:02:19;;;;;;;1.70;0.77;;;16.80;62.80;;;;;;4938135;28;20055;-46
2022/05/24 08:04:48;;;;;;;2.58;0.90;;;16.80;62.50;;;;;;4939241;28;20058;-45
2022/05/24 08:07:15;;;;;;;3.22;1.23;;;16.90;62.30;;;;;;4933851;28;20055;-44
2022/05/24 08:09:43;;;;;;;2.10;0.70;;;17.00;62.30;;;;;;4935496;28;20052;-46
2022/05/24 08:12:10;;;;;;;2.35;0.88;;;17.10;62.10;;;;;;4936382;28;20062;-49
2022/05/24 08:14:38;;;;;;;2.33;0.80;;;17.10;61.40;;;;;;4939124;28;20065;-46
2022/05/24 08:17:05;;;;;;;2.35;0.80;;;17.10;61.30;;;;;;4936974;28;20519;-45
2022/05/24 08:19:33;;;;;;;2.75;0.65;;;17.20;61.60;;;;;;4942773;28;20055;-45
2022/05/24 08:22:02;;;;;;;1.80;0.50;;;17.20;62.00;;;;;;4938417;28;21181;-46
2022/05/24 08:24:29;;;;;;;2.38;0.70;;;17.20;62.00;;;;;;4939222;28;20066;-49
2022/05/24 08:26:57;;;;;;;3.83;1.05;;;17.30;61.30;;;;;;4936944;28;20059;-48
2022/05/24 08:29:24;;;;;;;2.20;0.60;;;17.40;60.40;;;;;;4940956;28;20388;-47
2022/05/24 08:31:52;;;;;;;1.30;0.60;;;17.40;59.90;;;;;;4936123;28;21272;-51
2022/05/24 08:34:19;;;;;;;4.82;0.70;;;17.40;59.80;;;;;;4943791;28;20408;-45
2022/05/24 08:36:47;;;;;;;1.85;0.80;;;17.40;59.40;;;;;;4943827;28;20059;-45
2022/05/24 08:39:15;;;;;;;3.25;0.70;;;17.50;59.50;;;;;;4942259;28;20062;-47
2022/05/24 08:41:59;;;;;;;4.65;0.85;;;17.50;59.50;;;;;;4941722;28;20058;-44
2022/05/24 08:50:10;;;;;;;3.25;0.90;;;17.60;58.50;;;;;;4947602;28;20054;-47
2022/05/24 08:52:45;;;;;;;4.10;0.70;;;17.60;58.30;;;;;;4942402;28;20411;-46
2022/05/24 08:55:15;;;;;;;1.58;0.60;;;17.70;57.30;;;;;;4943050;28;20059;-49
2022/05/24 08:57:48;;;;;;;1.92;0.70;;;17.70;57.70;;;;;;4936747;28;20496;-44
2022/05/24 09:00:20;;;;;;;3.88;0.77;;;17.70;58.00;;;;;;4942454;28;20055;-47
2022/05/24 09:02:48;;;;;;;2.50;0.80;;;17.80;57.80;;;;;;4941246;28;20058;-48
2022/05/24 09:05:19;;;;;;;1.85;0.70;;;17.80;57.70;;;;;;4939237;28;20070;-45
2022/05/24 09:07:59;;;;;;;3.25;0.82;;;17.90;58.00;;;;;;4937268;28;20062;-49
2022/05/24 09:10:38;;;;;;;4.22;0.95;;;17.90;57.90;;;;;;4941107;28;20059;-46
2022/05/24 09:13:19;;;;;;;2.60;0.75;;;17.90;57.90;;;;;;4939473;28;20408;-44
2022/05/24 09:15:51;;;;;;;1.60;0.55;;;18.00;57.80;;;;;;4943827;28;20073;-44
2022/05/24 09:18:26;;;;;;;2.15;0.55;;;18.00;58.00;;;;;;4938341;28;20496;-45
2022/05/24 09:20:54;;;;;;;3.08;1.00;;;18.10;58.10;;;;;;4943753;28;20043;-49
2022/05/24 09:23:29;;;;;;;2.95;0.88;;;18.20;58.00;;;;;;4944202;28;20415;-45
2022/05/24 09:26:01;;;;;;;4.18;0.73;;;18.30;57.80;;;;;;4940813;28;20439;-45
2022/05/24 09:28:47;;;;;;;4.00;1.17;;;18.30;57.10;;;;;;4941095;28;20510;-45
2022/05/24 09:31:22;;;;;;;2.58;0.88;;;18.40;56.10;;;;;;4942700;28;20510;-44
2022/05/24 09:33:55;;;;;;;3.90;0.60;;;18.40;55.90;;;;;;4939559;28;20062;-45
2022/05/24 09:36:32;;;;;;;1.70;0.73;;;18.40;55.50;;;;;;4940680;28;20051;-44
2022/05/24 09:39:00;;;;;;;5.30;0.90;;;18.50;55.30;;;;;;4942212;28;20487;-44
2022/05/24 09:41:29;;;;;;;2.28;0.60;;;18.50;55.40;;;;;;4944117;28;20059;-46
2022/05/24 09:44:03;;;;;;;2.58;1.00;;;18.40;55.10;;;;;;4943887;28;20059;-44
2022/05/24 09:46:32;;;;;;;;;;;18.40;55.20;;;;;;4940922;28;20055;-45
2022/05/24 09:49:02;;;;;;;1.70;0.80;;;18.50;55.50;;;;;;4938835;28;19922;-45
2022/05/24 09:51:38;;;;;;;5.22;1.65;;;18.50;55.40;;;;;;4938435;28;20171;-47
2022/05/24 09:54:13;;;;;;;3.75;0.90;;;18.40;55.50;;;;;;4945233;28;20062;-46
2022/05/24 09:56:58;;;;;;;2.15;0.80;;;18.50;55.60;;;;;;4942784;28;20062;-49
2022/05/24 09:59:26;;;;;;;2.28;0.77;;;18.50;55.40;;;;;;4943563;28;20055;-50
2022/05/24 10:01:54;;;;;;;2.08;0.73;;;18.60;55.10;;;;;;4933604;28;20059;-45
2022/05/24 10:04:26;;;;;;;2.90;0.82;;;18.60;54.90;;;;;;4942484;28;20055;-46
2022/05/24 10:06:56;;;;;;;4.95;0.90;;;18.60;53.30;;;;;;4941940;28;20407;-46
2022/05/24 10:09:49;;;;;;;3.72;1.05;;;18.60;53.40;;;;;;4941907;28;20078;-44
2022/05/24 10:12:29;;;;;;;0.85;0.50;;;18.70;53.10;;;;;;4942931;28;20055;-44
2022/05/24 10:15:11;;;;;;;0.93;0.40;;;18.70;53.10;;;;;;4944158;28;20422;-47
2022/05/24 10:17:49;;;;;;;1.45;0.47;;;18.80;53.10;;;;;;4940912;28;20512;-44
2022/05/24 10:20:24;;;;;;;3.00;0.60;;;18.80;53.10;;;;;;4942856;28;20052;-44
2022/05/24 10:23:03;;;;;;;2.17;0.88;;;18.80;53.30;;;;;;4939811;28;20058;-46
2022/05/24 10:25:37;;;;;;;0.98;0.50;;;18.90;52.40;;;;;;4939545;28;20062;-47
2022/05/24 10:28:18;;;;;;;1.85;0.60;;;18.90;52.70;;;;;;4941575;28;20051;-45
2022/05/24 10:30:56;;;;;;;1.83;0.80;;;18.90;52.20;;;;;;4935014;28;20426;-45
2022/05/24 10:39:32;;;;;;;0.30;0.30;;;19.10;52.70;;;;;;4942376;28;20422;-46
2022/05/24 10:42:11;;;;;;;3.85;0.50;;;19.10;51.10;;;;;;4941331;28;20055;-46
2022/05/24 10:44:46;;;;;;;1.42;0.50;;;19.20;51.30;;;;;;4938778;28;20070;-44
2022/05/24 10:47:25;;;;;;;1.60;0.68;;;19.30;50.50;;;;;;4937015;28;20059;-51
2022/05/24 10:50:00;;;;;;;2.03;0.70;;;19.30;49.60;;;;;;4940705;28;20510;-44
2022/05/24 10:52:34;;;;;;;2.05;0.60;;;19.30;48.80;;;;;;4940923;28;20557;-45
2022/05/24 10:55:08;;;;;;;3.17;0.70;;;19.30;48.90;;;;;;4936145;28;20062;-47
2022/05/24 10:57:41;;;;;;;2.20;0.68;;;19.30;48.60;;;;;;4939163;28;20054;-45
2022/05/24 11:00:16;;;;;;;5.83;0.80;;;19.30;48.70;;;;;;4934945;28;20511;-44
2022/05/24 11:02:50;;;;;;;6.68;1.08;;;19.30;49.70;;;;;;4936486;28;20064;-44
2022/05/24 11:05:21;;;;;;;1.30;0.35;;;19.30;50.40;;;;;;4942497;28;20504;-44
2022/05/24 11:07:55;;;;;;;1.58;0.52;;;19.30;49.50;;;;;;4937623;28;20530;-44
2022/05/24 11:10:26;;;;;;;1.02;0.70;;;19.30;49.10;;;;;;4943139;28;20067;-45
2022/05/24 11:12:58;;;;;;;2.22;0.70;;;19.20;48.80;;;;;;4940887;28;20055;-45
2022/05/24 11:15:33;;;;;;;3.05;0.70;;;19.30;49.20;;;;;;4933650;28;20064;-44
2022/05/24 11:18:02;;;;;;;2.90;0.60;;;19.20;48.90;;;;;;4938036;28;20055;-48
2022/05/24 11:20:35;;;;;;;3.30;0.55;;;19.20;48.30;;;;;;4939247;28;20055;-44
2022/05/24 11:23:14;;;;;;;4.05;0.98;;;19.10;48.50;;;;;;4936611;28;20059;-45
2022/05/24 11:25:45;;;;;;;3.15;0.70;;;19.10;49.30;;;;;;4934397;28;20824;-47
2022/05/24 11:28:26;;;;;;;5.43;0.68;;;19.10;49.40;;;;;;4934060;28;20066;-51
2022/05/24 11:31:17;;;;;;;2.15;0.70;;;19.00;48.10;;;;;;4935777;28;20055;-45
2022/05/24 11:33:48;;;;;;;2.88;0.60;;;19.00;48.90;;;;;;4928531;28;20047;-46
2022/05/24 11:36:37;;;;;;;2.67;0.80;;;18.90;48.80;;;;;;4940907;28;20507;-46
2022/05/24 11:39:18;;;;;;;2.20;0.73;;;18.90;48.70;;;;;;4938822;28;20055;-48
2022/05/24 11:41:47;;;;;;;0.65;0.55;;;18.80;49.30;;;;;;4936325;28;20687;-44
2022/05/24 11:44:34;;;;;;;3.45;0.77;;;18.80;50.10;;;;;;4943775;28;20499;-45
2022/05/24 11:47:03;;;;;;;1.05;0.50;;;18.90;50.80;;;;;;4938772;28;20074;-48
2022/05/24 11:50:06;;;;;;;1.60;0.52;;;18.90;50.00;;;;;;4941727;28;20503;-45
2022/05/24 11:53:10;;;;;;;1.85;0.50;;;19.00;49.60;;;;;;4944200;28;20066;-44
2022/05/24 11:55:44;;;;;;;1.60;0.50;;;19.10;49.80;;;;;;4936673;28;20050;-45
2022/05/24 11:58:43;;;;;;;2.47;0.52;;;19.10;49.80;;;;;;4942423;28;20066;-44
2022/05/24 12:01:31;;;;;;;1.42;0.50;;;19.20;49.90;;;;;;4944322;28;20102;-45
2022/05/24 12:10:32;;;;;;;1.95;0.60;;;19.40;48.20;;;;;;4941717;28;20062;-47
2022/05/24 12:13:29;;;;;;;2.92;0.40;;;19.50;48.00;;;;;;4933487;28;21192;-45
2022/05/24 12:15:59;;;;;;;2.55;0.47;;;19.50;47.50;;;;;;4930654;28;20495;-45
2022/05/24 12:18:40;;;;;;;2.38;0.52;;;19.60;48.20;;;;;;4925521;28;20077;-44
2022/05/24 12:21:09;;;;;;;3.38;0.80;;;19.70;48.10;;;;;;4936524;28;20043;-44
2022/05/24 12:23:41;;;;;;;1.38;0.50;;;19.60;49.20;;;;;;4932685;28;20063;-44
2022/05/24 12:26:12;;;;;;;2.83;0.60;;;19.60;49.60;;;;;;4928810;28;20059;-46
2022/05/24 12:28:49;;;;;;;1.25;0.50;;;19.70;50.60;;;;;;4941488;28;20059;-44
2022/05/24 12:31:30;;;;;;;0.80;0.45;;;19.70;51.20;;;;;;4947517;28;20059;-44
2022/05/24 12:34:00;;;;;;;2.53;0.57;;;19.70;51.90;;;;;;4946010;28;20055;-44
2022/05/24 12:36:33;;;;;;;1.63;0.60;;;19.80;52.20;;;;;;4947196;28;20419;-44
2022/05/24 12:39:05;;;;;;;1.25;0.40;;;19.80;52.30;;;;;;4946893;28;20062;-44
2022/05/24 12:41:36;;;;;;;1.40;0.70;;;19.90;52.80;;;;;;4946118;29;20066;-44
2022/05/24 12:44:12;;;;;;;2.85;0.80;;;20.00;53.20;;;;;;4946370;28;20066;-46
2022/05/24 12:46:41;;;;;;;3.20;0.80;;;20.10;53.30;;;;;;4946844;28;20265;-49
2022/05/24 12:49:11;;;;;;;1.00;0.60;;;20.20;53.40;;;;;;4946844;28;20135;-45
2022/05/24 12:51:40;;;;;;;3.40;0.60;;;20.30;52.30;;;;;;4947590;28;20059;-44
2022/05/24 12:54:14;;;;;;;2.15;0.65;;;20.40;52.00;;;;;;4947775;28;20078;-44
2022/05/24 12:56:54;;;;;;;2.35;0.80;;;20.50;52.00;;;;;;4947084;28;20136;-47
2022/05/24 12:59:34;;;;;;;1.65;0.57;;;20.50;50.70;;;;;;4947399;28;20067;-44
2022/05/24 13:02:16;;;;;;;3.80;0.60;;;20.60;50.00;;;;;;4942732;28;20058;-44
2022/05/24 13:04:45;;;;;;;2.33;0.65;;;20.60;49.90;;;;;;4937243;28;21275;-44
2022/05/24 13:07:35;;;;;;;2.35;0.63;;;20.70;50.30;;;;;;4930716;28;20419;-49
2022/05/24 13:10:07;;;;;;;0.57;0.40;;;20.70;49.90;;;;;;4935122;28;20078;-51
2022/05/24 13:12:35;;;;;;;2.28;0.82;;;20.80;49.90;;;;;;4942153;28;20062;-46
2022/05/24 13:15:05;;;;;;;0.77;0.50;;;20.80;49.70;;;;;;4941685;28;20055;-44
2022/05/24 13:17:40;;;;;;;1.48;0.70;;;20.90;48.90;;;;;;4942522;28;20518;-44
2022/05/24 13:20:10;;;;;;;1.55;0.45;;;21.00;48.30;;;;;;4945002;28;20062;-44
2022/05/24 13:22:45;;;;;;;1.45;0.50;;;21.00;47.70;;;;;;4943230;28;20059;-44
2022/05/24 13:25:18;;;;;;;3.40;0.50;;;21.10;47.30;;;;;;4943098;28;20082;-45
2022/05/24 13:27:55;;;;;;;2.60;0.80;;;21.10;47.30;;;;;;4943229;28;20059;-45
2022/05/24 13:33:35;;;;;;;1.48;0.90;;;21.10;46.90;;;;;;4945080;28;20070;-44
2022/05/24 13:36:15;;;;;;;2.90;0.70;;;21.10;47.00;;;;;;4942871;28;20082;-46
2022/05/24 13:38:46;;;;;;;1.50;0.68;;;21.00;47.80;;;;;;4935751;28;20063;-44
2022/05/24 13:41:27;;;;;;;3.97;1.00;;;20.90;47.80;;;;;;4942717;28;20065;-46
2022/05/24 13:44:19;;;;;;;4.18;0.90;;;20.80;47.70;;;;;;4932957;28;20063;-45
2022/05/24 13:46:52;;;;;;;1.95;0.85;;;20.80;48.40;;;;;;4939430;28;20043;-45
2022/05/24 13:49:28;;;;;;;1.42;0.45;;;20.60;48.10;;;;;;4944943;29;20081;-44
2022/05/24 13:52:16;;;;;;;2.35;0.50;;;20.50;47.30;;;;;;4927632;28;20117;-45
2022/05/24 13:54:46;;;;;;;0.55;0.40;;;20.40;47.90;;;;;;4928098;28;20522;-45
2022/05/24 13:57:24;;;;;;;0.47;0.30;;;20.30;48.00;;;;;;4933158;28;20540;-45